Time;durP1;ratioP1;P1;durP2;ratioP2;P2;SDS_P1;SDS_P2;PMS_P1;PMS_P2;Temp;Humidity;BMP_temperature;BMP_pressure;BME280_temperature;BME280_humidity;BME280_pressure;Samples;Min_cycle;Max_cycle;Signal;HPM_P1;HPM_P2
2022/11/27 00:04:44;;;;;;;;;;;1.60;99.90;;;0.24;100.00;96904.34;10517603;28;1975;-69
2022/11/27 00:09:48;;;;;;;;;;;;;;;0.30;100.00;96908.09;10513677;28;2147;-68
2022/11/27 00:14:51;;;;;;;;;;;;;;;0.33;100.00;96913.84;10516550;28;2236;-69
2022/11/27 00:19:58;;;;;;;;;;;;;;;0.37;100.00;96923.03;10512592;28;2531;-68
2022/11/27 00:25:01;;;;;;;;;;;;;;;0.28;100.00;96912.75;10507598;28;2089;-69
2022/11/27 00:30:04;;;;;;;;;;;;;;;0.27;100.00;96914.56;10506661;28;2158;-67
2022/11/27 00:35:07;;;;;;;;;;;;;;;0.28;100.00;96918.03;10510085;28;2140;-69
2022/11/27 00:40:11;;;;;;;;;;;;;;;0.24;100.00;96905.16;10509755;28;2172;-69
2022/11/27 00:45:14;;;;;;;;;;;;;;;0.24;100.00;96893.75;10509291;28;2145;-69
2022/11/27 00:50:17;;;;;;;;;;;;;;;0.24;100.00;96877.88;10547400;27;2184;-68
2022/11/27 00:55:20;;;;;;;;;;;;;;;0.29;100.00;96883.47;10507391;28;2312;-68
2022/11/27 01:00:24;;;;;;;;;;;;;;;0.40;100.00;96887.50;10500517;28;2177;-69
2022/11/27 01:05:27;;;;;;;;;;;;;;;0.36;100.00;96881.72;10510979;28;2130;-69
2022/11/27 01:10:30;;;;;;;;;;;;;;;0.36;100.00;96870.34;10508271;28;2179;-72
2022/11/27 01:15:33;;;;;;;;;;;;;;;0.34;100.00;96869.69;10534204;28;2191;-70
2022/11/27 01:20:37;;;;;;;;;;;;;;;0.34;100.00;96867.88;10503437;28;2181;-73
2022/11/27 01:25:40;;;;;;;;;;;;;;;0.28;100.00;96860.66;10507988;28;2186;-74
2022/11/27 01:30:43;;;;;;;;;;;;;;;0.20;100.00;96851.00;10512607;28;2144;-73
2022/11/27 01:35:47;;;;;;;;;;;;;;;0.15;100.00;96841.97;10502660;28;2571;-70
2022/11/27 01:40:50;;;;;;;;;;;;;;;0.04;100.00;96840.59;10512428;28;2200;-70
2022/11/27 01:45:53;;;;;;;;;;;1.30;99.90;;;0.04;100.00;96845.06;10512901;28;2163;-68
2022/11/27 01:50:55;;;;;;;;;;;1.30;99.90;;;0.02;100.00;96847.06;10520378;28;2299;-72
2022/11/27 01:55:58;;;;;;;;;;;1.30;99.90;;;0.03;100.00;96849.53;10513617;28;2245;-69
2022/11/27 02:01:01;;;;;;;;;;;1.20;99.90;;;-0.01;100.00;96843.78;10522135;28;2126;-68
2022/11/27 02:06:04;;;;;;;;;;;1.30;99.90;;;-0.04;100.00;96843.31;10515893;28;2153;-68
2022/11/27 02:11:06;;;;;;;;;;;1.20;99.90;;;-0.01;100.00;96838.47;10511827;28;2160;-74
2022/11/27 02:16:09;;;;;;;;;;;1.20;99.90;;;-0.07;100.00;96833.91;10516838;28;2309;-67
2022/11/27 02:21:19;;;;;;;;;;;1.10;99.90;;;-0.08;100.00;96821.72;10520432;28;2238;-70
2022/11/27 02:26:21;;;;;;;;;;;1.10;99.90;;;-0.12;100.00;96812.53;10524338;28;2288;-71
2022/11/27 02:31:24;;;;;;;;;;;1.10;99.90;;;-0.13;100.00;96802.09;10516511;28;2161;-76
2022/11/27 02:36:27;;;;;;;;;;;1.00;99.90;;;-0.12;100.00;96807.22;10509253;28;2277;-70
2022/11/27 02:41:30;;;;;;;;;;;1.10;99.90;;;-0.15;100.00;96799.66;10511596;28;2156;-70
2022/11/27 02:46:33;;;;;;;;;;;1.00;99.90;;;-0.14;100.00;96795.19;10509529;28;2206;-69
2022/11/27 02:51:37;;;;;;;;;;;1.10;99.90;;;-0.22;100.00;96787.34;10512622;28;2233;-69
2022/11/27 02:56:40;;;;;;;;;;;1.10;99.90;;;-0.23;100.00;96775.16;10517369;28;2161;-70
2022/11/27 03:01:43;;;;;;;;;;;1.00;99.90;;;-0.28;100.00;96765.13;10506731;28;2214;-68
2022/11/27 03:06:46;;;;;;;;;;;0.90;99.90;;;-0.25;100.00;96750.72;10516709;28;2250;-71
2022/11/27 03:11:49;;;;;;;;;;;0.90;99.90;;;-0.28;100.00;96749.25;10516550;28;2276;-68
2022/11/27 03:16:51;;;;;;;;;;;0.90;99.90;;;-0.21;100.00;96749.34;10508337;28;2202;-67
2022/11/27 03:21:54;;;;;;;;;;;0.90;99.90;;;-0.28;100.00;96752.72;10510530;28;2158;-68
2022/11/27 03:26:57;;;;;;;;;;;;;;;-0.34;100.00;96749.97;10501259;28;2195;-69
2022/11/27 03:32:01;;;;;;;;;;;;;;;-0.40;100.00;96740.97;10503458;28;2297;-69
2022/11/27 03:37:04;;;;;;;;;;;;;;;-0.37;100.00;96745.91;10509843;28;2219;-71
2022/11/27 03:42:07;;;;;;;;;;;;;;;-0.39;100.00;96736.50;10514476;28;2142;-68
2022/11/27 03:47:10;;;;;;;;;;;;;;;-0.41;100.00;96722.66;10504720;28;2262;-68
2022/11/27 03:52:13;;;;;;;;;;;;;;;-0.60;100.00;96724.81;10505228;28;2473;-69
2022/11/27 03:57:18;;;;;;;;;;;;;;;-0.61;100.00;96715.25;10513021;28;2181;-69
2022/11/27 04:02:22;;;;;;;;;;;;;;;-0.57;100.00;96719.19;10502119;28;2153;-68
2022/11/27 04:07:25;;;;;;;;;;;;;;;-0.56;100.00;96715.53;10510807;28;2235;-67
2022/11/27 04:12:29;;;;;;;;;;;;;;;-0.55;100.00;96725.09;10505677;28;2612;-68
2022/11/27 04:17:32;;;;;;;;;;;;;;;-0.61;100.00;96723.19;10507518;28;2150;-67
2022/11/27 04:22:35;;;;;;;;;;;;;;;-0.68;100.00;96722.28;10501204;28;2234;-71
2022/11/27 04:27:39;;;;;;;;;;;;;;;-0.64;100.00;96720.88;10515560;28;2255;-68
2022/11/27 04:32:42;;;;;;;;;;;;;;;-0.65;100.00;96721.06;10505683;28;2194;-68
2022/11/27 04:37:45;;;;;;;;;;;;;;;-0.70;100.00;96712.88;10505053;28;2324;-69
2022/11/27 04:42:49;;;;;;;;;;;;;;;-0.68;100.00;96706.41;10509195;28;2158;-68
2022/11/27 04:47:52;;;;;;;;;;;;;;;-0.76;100.00;96709.16;10499728;28;2142;-69
2022/11/27 04:52:56;;;;;;;;;;;;;;;-0.76;100.00;96711.78;10508392;28;2203;-67
2022/11/27 04:58:00;;;;;;;;;;;;;;;-0.73;100.00;96715.88;10509109;28;2240;-68
2022/11/27 05:03:03;;;;;;;;;;;;;;;-0.76;100.00;96724.16;10503217;28;2206;-68
2022/11/27 05:08:06;;;;;;;;;;;;;;;-0.79;100.00;96722.69;10506392;28;2378;-70
2022/11/27 05:13:10;;;;;;;;;;;;;;;-0.82;100.00;96712.50;10485888;28;2165;-68
2022/11/27 05:18:13;;;;;;;;;;;;;;;-0.85;100.00;96718.13;10514083;28;2094;-68
2022/11/27 05:23:17;;;;;;;;;;;;;;;-0.83;100.00;96711.69;10512589;28;2178;-70
2022/11/27 05:28:20;;;;;;;;;;;;;;;-0.77;100.00;96704.03;10514455;28;2193;-73
2022/11/27 05:33:28;;;;;;;;;;;;;;;-0.92;100.00;96711.94;10520180;28;2140;-72
2022/11/27 05:38:31;;;;;;;;;;;;;;;-1.05;100.00;96723.09;10525402;28;2225;-73
2022/11/27 05:43:35;;;;;;;;;;;;;;;-1.00;100.00;96709.38;10513294;28;2218;-72
2022/11/27 05:48:39;;;;;;;;;;;;;;;-0.97;100.00;96704.53;10510311;28;2277;-74
2022/11/27 05:53:42;;;;;;;;;;;;;;;-0.93;100.00;96699.72;10515691;28;2186;-71
2022/11/27 05:58:45;;;;;;;;;;;;;;;-0.92;100.00;96701.38;10509188;28;2166;-68
2022/11/27 06:03:49;;;;;;;;;;;;;;;-1.01;100.00;96699.81;10521060;28;2460;-67
2022/11/27 06:08:57;;;;;;;;;;;;;;;-0.91;100.00;96690.63;10514781;28;2201;-68
2022/11/27 06:14:01;;;;;;;;;;;;;;;-0.94;100.00;96704.19;10507499;28;2235;-69
2022/11/27 06:19:04;;;;;;;;;;;;;;;-0.97;100.00;96690.53;10508395;28;2212;-69
2022/11/27 06:24:07;;;;;;;;;;;;;;;-1.13;100.00;96688.88;10505425;28;2134;-72
2022/11/27 06:29:10;;;;;;;;;;;;;;;-1.11;100.00;96695.59;10515196;28;2252;-68
2022/11/27 06:34:13;;;;;;;;;;;;;;;-1.01;100.00;96702.47;10512893;28;2225;-69
2022/11/27 06:39:17;;;;;;;;;;;;;;;-0.95;100.00;96701.75;10499471;28;2208;-70
2022/11/27 06:44:20;;;;;;;;;;;;;;;-1.00;100.00;96704.09;10500531;28;2227;-68
2022/11/27 06:49:23;;;;;;;;;;;;;;;-1.03;100.00;96699.97;10508258;28;2131;-68
2022/11/27 06:54:27;;;;;;;;;;;;;;;-0.97;100.00;96693.16;10507972;28;2141;-67
2022/11/27 06:59:30;;;;;;;;;;;;;;;-0.98;100.00;96686.25;10503357;28;2225;-68
2022/11/27 07:04:33;;;;;;;;;;;;;;;-0.99;100.00;96679.34;10514176;28;2218;-67
2022/11/27 07:09:36;;;;;;;;;;;;;;;-0.96;100.00;96678.97;10510692;28;2139;-67
2022/11/27 07:14:39;;;;;;;;;;;;;;;-1.01;100.00;96682.16;10506182;28;2206;-68
2022/11/27 07:19:43;;;;;;;;;;;;;;;-0.99;100.00;96674.06;10505792;28;2190;-67
2022/11/27 07:24:46;;;;;;;;;;;;;;;-1.05;100.00;96680.03;10514488;28;2117;-68
2022/11/27 07:29:49;;;;;;;;;;;;;;;-1.03;100.00;96681.50;10506500;28;2106;-68
2022/11/27 07:34:52;;;;;;;;;;;;;;;-1.10;100.00;96678.75;10508743;28;2185;-70
2022/11/27 07:39:55;;;;;;;;;;;;;;;-1.15;100.00;96683.75;10514347;28;1962;-71
2022/11/27 07:45:06;;;;;;;;;;;;;;;-1.19;100.00;96677.19;10508857;28;1979;-72
2022/11/27 07:50:10;;;;;;;;;;;;;;;-1.07;100.00;96667.03;10518991;28;2049;-68
2022/11/27 07:55:13;;;;;;;;;;;;;;;-0.93;100.00;96660.16;10514181;28;1974;-70
2022/11/27 08:00:16;;;;;;;;;;;;;;;-0.95;100.00;96655.06;10506580;28;1982;-69
2022/11/27 08:05:19;;;;;;;;;;;;;;;-0.96;100.00;96649.94;10512352;28;1910;-68
2022/11/27 08:10:22;;;;;;;;;;;;;;;-0.79;100.00;96653.25;10518705;28;1866;-69
2022/11/27 08:15:26;;;;;;;;;;;;;;;-0.64;100.00;96646.13;10524950;28;1961;-69
2022/11/27 08:20:29;;;;;;;;;;;;;;;-0.50;100.00;96647.16;10494310;28;1967;-71
2022/11/27 08:25:32;;;;;;;;;;;;;;;-0.48;100.00;96642.50;10515289;28;2013;-68
2022/11/27 08:30:37;;;;;;;;;;;;;;;-0.31;100.00;96633.38;10524861;28;1927;-68
2022/11/27 08:35:40;;;;;;;;;;;;;;;-0.19;100.00;96631.91;10510667;28;1957;-67
2022/11/27 08:40:43;;;;;;;;;;;0.90;99.90;;;-0.20;100.00;96630.25;10519500;28;1950;-68
2022/11/27 08:45:45;;;;;;;;;;;0.80;99.90;;;-0.09;100.00;96634.25;10508569;28;2203;-70
2022/11/27 08:50:48;;;;;;;;;;;0.90;99.90;;;-0.07;100.00;96637.50;10507977;28;1900;-69
2022/11/27 08:55:51;;;;;;;;;;;0.90;99.90;;;0.02;100.00;96636.41;10510532;28;2058;-68
2022/11/27 09:00:54;;;;;;;;;;;1.00;99.90;;;0.08;100.00;96629.56;10509753;28;1940;-70
2022/11/27 09:05:56;;;;;;;;;;;1.00;99.90;;;0.22;100.00;96628.69;10513900;28;1962;-70
2022/11/27 09:11:00;;;;;;;;;;;1.10;99.90;;;0.27;100.00;96628.97;10513964;28;1962;-73
2022/11/27 09:16:02;;;;;;;;;;;1.20;99.90;;;0.38;100.00;96624.97;10517070;28;1946;-70
2022/11/27 09:21:05;;;;;;;;;;;1.30;99.90;;;0.51;100.00;96619.84;10512137;28;1974;-71
2022/11/27 09:26:08;;;;;;;;;;;1.40;99.90;;;0.66;100.00;96611.81;10515716;28;1965;-70
2022/11/27 09:31:11;;;;;;;;;;;1.50;99.90;;;0.81;100.00;96604.59;10491279;28;1983;-71
2022/11/27 09:36:13;;;;;;;;;;;1.70;99.90;;;0.84;100.00;96604.22;10511083;28;2011;-69
2022/11/27 09:41:16;;;;;;;;;;;1.80;99.90;;;1.02;100.00;96591.34;10518837;28;2011;-77
2022/11/27 09:46:19;;;;;;;;;;;1.90;99.90;;;1.18;100.00;96584.91;10509071;28;2028;-75
2022/11/27 09:51:21;;;;;;;;;;;2.10;99.90;;;1.20;100.00;96566.97;10501494;28;2031;-74
2022/11/27 09:56:24;;;;;;;;;;;2.20;99.90;;;1.18;100.00;96562.91;10510628;28;2133;-72
2022/11/27 10:01:27;;;;;;;;;;;2.20;99.90;;;1.28;100.00;96548.31;10509316;28;1951;-71
2022/11/27 10:06:42;;;;;;;;;;;2.20;99.90;;;1.41;100.00;96547.53;10515535;28;2101;-68
2022/11/27 10:11:44;;;;;;;;;;;2.30;99.90;;;1.56;100.00;96531.50;10517365;28;2028;-69
2022/11/27 10:16:47;;;;;;;;;;;2.50;99.90;;;1.68;100.00;96521.16;10517653;28;1962;-69
2022/11/27 10:21:50;;;;;;;;;;;2.50;99.90;;;1.82;100.00;96513.00;10513730;28;2089;-68
2022/11/27 10:26:59;;;;;;;;;;;2.70;99.90;;;1.89;100.00;96507.72;10535542;28;1910;-71
2022/11/27 10:32:01;;;;;;;;;;;2.80;99.90;;;2.02;100.00;96496.31;10519731;28;1978;-73
2022/11/27 10:37:05;;;;;;;;;;;2.90;99.90;;;2.20;100.00;96482.47;10530140;27;2017;-70
2022/11/27 10:42:09;;;;;;;;;;;3.10;99.90;;;2.32;100.00;96480.84;10514951;28;1962;-69
2022/11/27 10:47:11;;;;;;;;;;;3.10;99.90;;;2.34;100.00;96476.97;10518115;28;1990;-69
2022/11/27 10:52:14;;;;;;;;;;;3.20;99.90;;;2.32;100.00;96465.75;10510494;28;2010;-67
2022/11/27 10:57:17;;;;;;;;;;;3.20;99.90;;;2.34;100.00;96462.88;10511487;28;2012;-68
2022/11/27 11:02:20;;;;;;;;;;;3.30;99.90;;;2.27;100.00;96467.38;10513022;28;1930;-68
2022/11/27 11:07:24;;;;;;;;;;;3.30;99.90;;;2.01;100.00;96482.25;10510163;28;1974;-70
2022/11/27 11:12:27;;;;;;;;;;;3.10;99.90;;;1.80;100.00;96477.13;10512285;28;2046;-67
2022/11/27 11:17:33;;;;;;;;;;;2.90;99.90;;;1.54;100.00;96476.06;10529908;28;1970;-68
2022/11/27 11:22:36;;;;;;;;;;;2.70;99.90;;;1.15;100.00;96479.38;10511913;28;1883;-68
2022/11/27 11:27:38;;;;;;;;;;;2.40;99.90;;;0.94;100.00;96495.34;10519237;28;1974;-68
2022/11/27 11:32:41;;;;;;;;;;;2.10;99.90;;;0.77;100.00;96484.28;10518725;28;1923;-68
2022/11/27 11:37:44;;;;;;;;;;;1.90;99.90;;;0.85;100.00;96478.00;10521474;28;1904;-69
2022/11/27 11:42:46;;;;;;;;;;;1.90;99.90;;;0.72;100.00;96473.44;10518480;28;1970;-75
2022/11/27 11:47:49;;;;;;;;;;;1.70;99.90;;;0.80;100.00;96478.56;10518192;28;1975;-67
2022/11/27 11:52:52;;;;;;;;;;;1.70;99.90;;;0.82;100.00;96481.84;10515090;28;1931;-68
2022/11/27 11:57:55;;;;;;;;;;;1.80;99.90;;;0.90;100.00;96486.19;10508380;28;1957;-68
2022/11/27 12:02:58;;;;;;;;;;;1.80;99.90;;;0.74;100.00;96482.81;10510339;28;1963;-68
2022/11/27 12:08:00;;;;;;;;;;;1.80;99.90;;;0.89;100.00;96474.78;10502336;28;2106;-69
2022/11/27 12:13:03;;;;;;;;;;;1.80;99.90;;;0.94;100.00;96467.03;10517916;28;1955;-70
2022/11/27 12:18:07;;;;;;;;;;;1.90;99.90;;;1.04;100.00;96456.09;10517598;28;1955;-72
2022/11/27 12:23:09;;;;;;;;;;;2.00;99.90;;;1.68;100.00;96447.75;10493614;28;1981;-68
2022/11/27 12:28:12;;;;;;;;;;;2.30;99.90;;;1.27;100.00;96451.31;10490087;28;1983;-69
2022/11/27 12:33:15;;;;;;;;;;;2.30;99.90;;;1.10;100.00;96441.25;10510234;28;1969;-69
2022/11/27 12:38:18;;;;;;;;;;;2.20;99.90;;;0.93;100.00;96440.78;10504209;28;1950;-69
2022/11/27 12:43:21;;;;;;;;;;;2.00;99.90;;;1.29;100.00;96432.56;10500506;28;2152;-70
2022/11/27 12:48:23;;;;;;;;;;;2.10;99.90;;;1.03;100.00;96425.34;10501774;28;1991;-71
2022/11/27 12:53:26;;;;;;;;;;;2.10;99.90;;;0.59;100.00;96431.84;10519927;28;1923;-71
2022/11/27 12:58:29;;;;;;;;;;;1.90;99.90;;;0.76;100.00;96422.59;10519294;28;2002;-71
2022/11/27 13:03:31;;;;;;;;;;;1.80;99.90;;;0.59;100.00;96401.94;10524516;28;1879;-68
2022/11/27 13:08:34;;;;;;;;;;;1.70;99.90;;;1.04;100.00;96403.97;10514605;28;2047;-67
2022/11/27 13:13:37;;;;;;;;;;;1.80;99.90;;;0.90;100.00;96386.41;10512039;28;1963;-69
2022/11/27 13:18:40;;;;;;;;;;;1.90;99.90;;;0.87;100.00;96383.31;10520487;28;1939;-68
2022/11/27 13:23:43;;;;;;;;;;;1.90;99.90;;;1.05;100.00;96384.41;10514495;28;1988;-70
2022/11/27 13:28:46;;;;;;;;;;;1.90;99.90;;;0.95;100.00;96389.25;10514983;28;2014;-70
2022/11/27 13:33:48;;;;;;;;;;;2.00;99.90;;;1.02;100.00;96379.53;10510643;28;2103;-75
2022/11/27 13:38:51;;;;;;;;;;;2.00;99.90;;;1.06;100.00;96370.16;10524922;28;1899;-73
2022/11/27 13:43:54;;;;;;;;;;;2.00;99.90;;;1.33;100.00;96367.56;10530767;28;1986;-72
2022/11/27 13:48:59;;;;;;;;;;;2.10;99.90;;;1.53;100.00;96372.94;10532166;28;2023;-69
2022/11/27 13:54:02;;;;;;;;;;;2.40;99.90;;;0.92;100.00;96363.19;10518317;28;1986;-66
2022/11/27 13:59:05;;;;;;;;;;;2.20;99.90;;;1.02;100.00;96358.34;10518964;28;2145;-67
2022/11/27 14:04:09;;;;;;;;;;;2.00;99.90;;;0.82;100.00;96357.44;10523919;28;1989;-66
2022/11/27 14:09:11;;;;;;;;;;;1.80;99.90;;;1.11;100.00;96337.78;10516436;28;2054;-67
2022/11/27 14:14:14;;;;;;;;;;;2.00;99.90;;;1.29;100.00;96345.16;10523070;28;2077;-67
2022/11/27 14:19:17;;;;;;;;;;;2.10;99.90;;;0.98;100.00;96335.13;10515543;28;1959;-69
2022/11/27 14:24:20;;;;;;;;;;;2.00;99.90;;;1.08;100.00;96336.38;10519050;28;2125;-68
2022/11/27 14:29:22;;;;;;;;;;;2.00;99.90;;;1.18;100.00;96335.16;10518197;28;1960;-67
2022/11/27 14:34:25;;;;;;;;;;;2.00;99.90;;;1.06;100.00;96334.94;10525610;28;1936;-66
2022/11/27 14:39:28;;;;;;;;;;;2.20;99.90;;;0.82;100.00;96330.97;10523050;28;1934;-67
2022/11/27 14:44:31;;;;;;;;;;;2.00;99.90;;;1.07;100.00;96337.38;10517993;28;1940;-68
2022/11/27 14:49:34;;;;;;;;;;;1.90;99.90;;;1.13;100.00;96327.00;10519968;28;1923;-66
2022/11/27 14:54:36;;;;;;;;;;;2.00;99.90;;;0.92;100.00;96320.84;10524187;28;1926;-65
2022/11/27 14:59:40;;;;;;;;;;;2.00;99.90;;;0.74;100.00;96329.31;10521813;28;1979;-67
2022/11/27 15:04:43;;;;;;;;;;;1.80;99.90;;;0.59;100.00;96310.16;10522662;28;1990;-68
2022/11/27 15:09:46;;;;;;;;;;;1.70;99.90;;;0.70;100.00;96301.66;10520264;28;2133;-68
2022/11/27 15:14:56;;;;;;;;;;;1.70;99.90;;;0.81;100.00;96303.69;10518016;28;1977;-67
2022/11/27 15:19:59;;;;;;;;;;;1.70;99.90;;;0.84;100.00;96301.69;10519063;28;2015;-68
2022/11/27 15:25:02;;;;;;;;;;;1.70;99.90;;;0.84;100.00;96297.22;10516419;28;2006;-69
2022/11/27 15:30:05;;;;;;;;;;;1.80;99.90;;;0.99;100.00;96289.09;10515400;28;1975;-68
2022/11/27 15:35:08;;;;;;;;;;;1.90;99.90;;;1.13;100.00;96285.44;10522427;28;2166;-69
2022/11/27 15:40:11;;;;;;;;;;;2.00;99.90;;;1.04;100.00;96274.25;10501414;28;1983;-69
2022/11/27 15:45:13;;;;;;;;;;;2.00;99.90;;;0.45;100.00;96259.03;10516346;28;1998;-65
2022/11/27 15:50:16;;;;;;;;;;;1.70;99.90;;;0.37;100.00;96253.91;10516407;28;1981;-66
2022/11/27 15:55:19;;;;;;;;;;;1.50;99.90;;;0.30;100.00;96253.06;10519106;28;1975;-67
2022/11/27 16:00:24;;;;;;;;;;;1.30;99.90;;;0.44;100.00;96260.03;10514834;28;2471;-68
2022/11/27 16:05:27;;;;;;;;;;;1.40;99.90;;;0.37;100.00;96251.25;10515847;28;2198;-68
2022/11/27 16:10:30;;;;;;;;;;;1.30;99.90;;;0.48;100.00;96237.47;10520681;28;1945;-68
2022/11/27 16:15:33;;;;;;;;;;;1.40;99.90;;;0.67;100.00;96227.13;10515292;28;1979;-76
2022/11/27 16:20:35;;;;;;;;;;;1.50;99.90;;;0.64;100.00;96227.56;10506266;28;2045;-76
2022/11/27 16:25:38;;;;;;;;;;;1.60;99.90;;;0.54;100.00;96228.72;10509365;28;2135;-70
2022/11/27 16:30:41;;;;;;;;;;;1.60;99.90;;;0.43;100.00;96221.38;10514317;28;2108;-72
2022/11/27 16:35:44;;;;;;;;;;;1.50;99.90;;;0.16;100.00;96209.09;10545047;27;2020;-71
2022/11/27 16:40:46;;;;;;;;;;;1.30;99.90;;;0.15;100.00;96207.44;10499899;28;2033;-69
2022/11/27 16:45:50;;;;;;;;;;;1.20;99.90;;;0.08;100.00;96203.97;10527378;27;1968;-70
2022/11/27 16:50:52;;;;;;;;;;;1.20;99.90;;;0.09;100.00;96190.56;10529486;28;1976;-77
2022/11/27 16:55:56;;;;;;;;;;;1.10;99.90;;;0.24;100.00;96170.06;10519187;28;1951;-69
2022/11/27 17:00:59;;;;;;;;;;;1.20;99.90;;;0.41;100.00;96175.81;10523024;28;2142;-70
2022/11/27 17:06:02;;;;;;;;;;;1.30;99.90;;;0.13;100.00;96161.91;10503578;28;2003;-67
2022/11/27 17:11:05;;;;;;;;;;;1.20;99.90;;;0.04;100.00;96152.50;10518600;28;1970;-75
2022/11/27 17:16:10;;;;;;;;;;;1.10;99.90;;;0.11;100.00;96154.16;10517290;28;1955;-70
2022/11/27 17:21:19;;;;;;;;;;;1.10;99.90;;;-0.05;100.00;96138.66;10525050;28;1946;-74
2022/11/27 17:26:22;;;;;;;;;;;1.10;99.90;;;-0.11;100.00;96132.34;10536736;28;1951;-69
2022/11/27 17:31:25;;;;;;;;;;;1.00;99.90;;;-0.21;100.00;96134.53;10530051;28;2002;-72
2022/11/27 17:36:29;;;;;;;;;;;0.90;99.90;;;-0.25;100.00;96122.75;10519279;28;2063;-70
2022/11/27 17:41:38;;;;;;;;;;;0.80;99.90;;;-0.32;100.00;96116.59;10523009;28;2090;-72
2022/11/27 17:46:43;;;;;;;;;;;0.80;99.90;;;-0.21;100.00;96113.38;10520885;28;1977;-70
2022/11/27 17:51:46;;;;;;;;;;;0.80;99.90;;;-0.07;100.00;96111.59;10534427;28;2775;-70
2022/11/27 17:56:50;;;;;;;;;;;0.80;99.90;;;0.08;100.00;96112.28;10523827;28;1971;-70
2022/11/27 18:01:53;;;;;;;;;;;1.00;99.90;;;-0.02;100.00;96101.25;10528482;28;1990;-69
2022/11/27 18:06:56;;;;;;;;;;;1.10;99.90;;;-0.07;100.00;96099.19;10533082;28;2068;-68
2022/11/27 18:11:58;;;;;;;;;;;1.00;99.90;;;0.00;100.00;96096.59;10534530;28;1974;-71
2022/11/27 18:17:03;;;;;;;;;;;0.90;99.90;;;-0.17;100.00;96087.41;10526603;28;1966;-71
2022/11/27 18:22:07;;;;;;;;;;;0.90;99.90;;;-0.01;100.00;96077.25;10521684;28;1931;-72
2022/11/27 18:27:14;;;;;;;;;;;0.90;99.90;;;0.25;100.00;96071.22;10515431;28;2012;-73
2022/11/27 18:32:17;;;;;;;;;;;1.10;99.90;;;0.27;100.00;96055.16;10515593;28;1989;-70
2022/11/27 18:37:20;;;;;;;;;;;1.20;99.90;;;0.24;100.00;96052.91;10513240;28;1994;-73
2022/11/27 18:42:23;;;;;;;;;;;1.30;99.90;;;0.19;100.00;96058.81;10509554;28;2081;-71
2022/11/27 18:47:26;;;;;;;;;;;1.20;99.90;;;0.26;100.00;96043.78;10511485;28;2076;-76
2022/11/27 18:52:29;;;;;;;;;;;1.20;99.90;;;0.38;100.00;96038.69;10513081;28;1942;-73
2022/11/27 18:57:31;;;;;;;;;;;1.30;99.90;;;0.36;100.00;96024.84;10505653;28;1959;-72
2022/11/27 19:02:34;;;;;;;;;;;1.30;99.90;;;0.32;100.00;96022.81;10509554;28;2061;-72
2022/11/27 19:07:37;;;;;;;;;;;1.20;99.90;;;0.25;100.00;96017.50;10509457;28;2022;-73
2022/11/27 19:12:40;;;;;;;;;;;1.30;99.90;;;0.39;100.00;96019.16;10508039;28;2029;-73
2022/11/27 19:17:43;;;;;;;;;;;1.30;99.90;;;0.50;100.00;96009.78;10516788;28;1923;-72
2022/11/27 19:22:45;;;;;;;;;;;1.40;99.90;;;0.50;100.00;96010.59;10511978;28;2073;-72
2022/11/27 19:27:48;;;;;;;;;;;1.40;99.90;;;0.52;100.00;96011.22;10519256;28;1959;-71
2022/11/27 19:32:51;;;;;;;;;;;1.50;99.90;;;0.56;100.00;96005.50;10509203;28;2019;-72
2022/11/27 19:37:53;;;;;;;;;;;1.50;99.90;;;0.57;100.00;96009.78;10507352;28;2123;-73
2022/11/27 19:42:56;;;;;;;;;;;1.50;99.90;;;0.56;100.00;96002.84;10514455;28;1962;-76
2022/11/27 19:48:03;;;;;;;;;;;1.60;99.90;;;0.42;100.00;95996.78;10518949;28;1976;-74
2022/11/27 19:53:06;;;;;;;;;;;1.50;99.90;;;0.39;100.00;95987.44;10511330;28;1959;-75
2022/11/27 19:58:09;;;;;;;;;;;1.40;99.90;;;0.45;100.00;95973.38;10501719;28;1960;-70
2022/11/27 20:03:13;;;;;;;;;;;1.50;99.90;;;0.61;100.00;95963.38;10519459;28;1992;-70
2022/11/27 20:08:16;;;;;;;;;;;1.50;99.90;;;0.64;100.00;95955.06;10527936;28;2002;-72
2022/11/27 20:13:19;;;;;;;;;;;1.50;99.90;;;0.62;100.00;95943.84;10527512;28;1978;-69
2022/11/27 20:18:26;;;;;;;;;;;1.60;99.90;;;0.51;100.00;95938.19;10506183;28;2133;-71
2022/11/27 20:23:29;;;;;;;;;;;1.60;99.90;;;0.57;100.00;95927.78;10499554;28;2019;-70
2022/11/27 20:28:32;;;;;;;;;;;1.60;99.90;;;0.73;100.00;95925.50;10525329;28;1981;-73
2022/11/27 20:33:35;;;;;;;;;;;1.70;99.90;;;0.93;100.00;95930.72;10508850;28;1956;-71
2022/11/27 20:38:38;;;;;;;;;;;1.80;99.90;;;1.02;100.00;95924.19;10514536;28;2097;-71
2022/11/27 20:43:41;;;;;;;;;;;1.90;99.90;;;1.10;100.00;95911.72;10514069;28;2009;-72
2022/11/27 20:48:44;;;;;;;;;;;1.90;99.90;;;0.88;100.00;95916.50;10513558;28;1974;-76
2022/11/27 20:53:48;;;;;;;;;;;2.00;99.90;;;0.81;100.00;95905.94;10518593;28;1924;-75
2022/11/27 20:58:53;;;;;;;;;;;1.80;99.90;;;0.68;100.00;95884.81;10519826;28;1962;-77
2022/11/27 21:03:56;;;;;;;;;;;1.70;99.90;;;0.57;100.00;95877.50;10517736;28;1937;-72
2022/11/27 21:08:58;;;;;;;;;;;1.70;99.90;;;0.54;100.00;95868.97;10518626;28;1962;-71
2022/11/27 21:14:01;;;;;;;;;;;1.60;99.90;;;0.66;100.00;95863.84;10516676;28;1915;-70
2022/11/27 21:19:04;;;;;;;;;;;1.60;99.90;;;0.56;100.00;95854.72;10516386;28;1887;-71
2022/11/27 21:24:06;;;;;;;;;;;1.60;99.90;;;0.59;100.00;95841.09;10521976;28;1955;-71
2022/11/27 21:29:11;;;;;;;;;;;1.60;99.90;;;0.63;100.00;95842.28;10514772;28;2016;-72
2022/11/27 21:34:13;;;;;;;;;;;1.60;99.90;;;0.63;100.00;95839.63;10509811;28;2216;-72
2022/11/27 21:39:19;;;;;;;;;;;1.60;99.90;;;0.75;100.00;95835.31;10509992;28;1990;-70
2022/11/27 21:44:22;;;;;;;;;;;1.60;99.90;;;0.71;100.00;95816.44;10481324;28;2191;-70
2022/11/27 21:49:24;;;;;;;;;;;1.70;99.90;;;0.77;100.00;95825.34;10518068;28;2316;-70
2022/11/27 21:54:27;;;;;;;;;;;1.70;99.90;;;0.59;100.00;95822.59;10518784;28;1936;-71
2022/11/27 21:59:34;;;;;;;;;;;1.70;99.90;;;0.32;100.00;95825.31;10515405;28;1962;-70
2022/11/27 22:04:36;;;;;;;;;;;1.50;99.90;;;0.44;100.00;95814.88;10509897;28;2273;-69
2022/11/27 22:09:40;;;;;;;;;;;1.40;99.90;;;0.57;100.00;95819.31;10522490;28;1986;-72
2022/11/27 22:14:43;;;;;;;;;;;1.50;99.90;;;0.39;100.00;95812.91;10508239;28;2074;-72
2022/11/27 22:19:47;;;;;;;;;;;1.40;99.90;;;0.38;100.00;95805.97;10517301;28;1931;-72
2022/11/27 22:24:50;;;;;;;;;;;1.40;99.90;;;0.52;100.00;95804.91;10488838;28;2093;-71
2022/11/27 22:29:53;;;;;;;;;;;1.40;99.90;;;0.61;100.00;95794.88;10515737;28;1979;-71
2022/11/27 22:34:55;;;;;;;;;;;1.50;99.90;;;0.42;100.00;95775.44;10512040;28;2129;-71
2022/11/27 22:39:58;;;;;;;;;;;1.60;99.90;;;0.35;100.00;95768.56;10518525;28;1912;-74
2022/11/27 22:45:01;;;;;;;;;;;1.40;99.90;;;0.26;100.00;95771.44;10505455;28;1957;-73
2022/11/27 22:50:05;;;;;;;;;;;1.40;99.90;;;0.17;100.00;95777.97;10508665;28;1917;-73
2022/11/27 22:55:08;;;;;;;;;;;1.30;99.90;;;0.16;100.00;95768.41;10510066;28;1982;-74
2022/11/27 23:00:10;;;;;;;;;;;1.20;99.90;;;0.20;100.00;95771.47;10520870;28;2038;-71
2022/11/27 23:05:14;;;;;;;;;;;1.20;99.90;;;0.24;100.00;95752.31;10519542;28;2063;-68
2022/11/27 23:10:17;;;;;;;;;;;1.20;99.90;;;0.16;100.00;95749.91;10523860;28;2030;-70
2022/11/27 23:15:20;;;;;;;;;;;1.30;99.90;;;0.31;100.00;95752.28;10508580;28;2003;-70
2022/11/27 23:20:23;;;;;;;;;;;1.20;99.90;;;0.24;100.00;95740.94;10510749;28;1982;-75
2022/11/27 23:25:25;;;;;;;;;;;1.30;99.90;;;0.19;100.00;95738.09;10507129;28;2018;-73
2022/11/27 23:30:38;;;;;;;;;;;1.20;99.90;;;0.27;100.00;95724.66;10519822;28;2046;-71
2022/11/27 23:35:41;;;;;;;;;;;1.30;99.90;;;0.28;100.00;95720.19;10512750;28;1934;-70
2022/11/27 23:40:43;;;;;;;;;;;1.30;99.90;;;0.35;100.00;95718.31;10511721;28;2003;-72
2022/11/27 23:45:46;;;;;;;;;;;1.30;99.90;;;0.37;100.00;95718.91;10504809;28;2117;-69
2022/11/27 23:50:49;;;;;;;;;;;1.30;99.90;;;0.37;100.00;95698.56;10514442;28;2080;-70
2022/11/27 23:55:51;;;;;;;;;;;1.40;99.90;;;0.40;100.00;95700.00;10513735;28;1893;-69
